• Join FlightAware (Why Join?)
  • Login
  • US Flag 
10:44PM EDT


 

Airport Tracker/Info


-or-


 

Live Flight TrackerFlight Track Log ✈ DAL3970 ✈ 20-Apr-2013 ✈ KCWA - KDTW

Flight Track Log - Related Links

Times and Time Zones

All times are in EDT time to prevent confusion due to time zone crossing. See the DAL3970 flight status page for this flight to view local times or setup timezone preferences in your user account.

Time Position Orientation Groundspeed Altitude Reporting Facility
EDT Latitude Longitude Course Direction KTS MPH feet Rate Location/Type
07:45AM 44.7825 -89.6219 101° East 175 201 2,700  Level Minneapolis Center
07:46AM 44.7722 -89.5492 101° East 192 221 4,600 2,220 Climbing Minneapolis Center
07:47AM 44.7561 -89.4442 102° East 266 306 7,200 2,880 Climbing Minneapolis Center
07:48AM 44.6852 -89.1255 107° East  Level FlightAware Approximate
07:48AM 44.7372 -89.3253 103° East 296 341 10,500  Level Minneapolis Center
07:49AM 44.6763 -88.9885 109° East  Level FlightAware Approximate
07:49AM 44.7200 -89.2106 102° East 313 360 13,100  Level Minneapolis Center
07:50AM 44.6477 -88.8675 101° East  Level FlightAware Approximate
07:50AM 44.6975 -89.0678 102° East 355 409 14,100  Level Minneapolis Center
07:51AM 44.6744 -88.9306 103° East 388 447 15,100 1,080 Climbing Minneapolis Center
07:52AM 44.6492 -88.7708 102° East 413 475 16,300 1,260 Climbing Minneapolis Center
07:53AM 44.6222 -88.6094 103° East 422 486 17,700 1,320 Climbing Minneapolis Center
07:54AM 44.5956 -88.4458 103° East 427 491 19,000 1,320 Climbing Minneapolis Center
07:55AM 44.5683 -88.2808 103° East 432 497 20,400 1,380 Climbing Minneapolis Center
07:56AM 44.5208 -88.1275 113° Southeast 431 496 21,900 1,260 Climbing Minneapolis Center
07:57AM 44.4503 -87.9906 126° Southeast 432 497 23,000 1,020 Climbing Minneapolis Center
07:58AM 44.3794 -87.8517 125° Southeast 434 499 24,000 960 Climbing Minneapolis Center
07:59AM 44.3064 -87.7128 126° Southeast 439 505 25,000 960 Climbing Minneapolis Center
08:00AM 44.2336 -87.5708 126° Southeast 445 512 26,000 960 Climbing Minneapolis Center
08:01AM 44.1619 -87.4333 126° Southeast 441 507 27,000 480 Climbing Minneapolis Center
08:02AM 44.0881 -87.2939 126° Southeast 442 509 27,000  Level Minneapolis Center
08:03AM 44.0078 -87.1442 127° Southeast 456 525 27,000  Level Minneapolis Center
08:04AM 43.9478 -87.0292 126° Southeast 461 531 27,000  Level Minneapolis Center
08:05AM 43.8556 -86.8553 126° Southeast 465 535 27,000  Level Minneapolis Center
08:06AM 43.7889 -86.6989 121° Southeast 473 544 27,000  Level Minneapolis Center
08:07AM 43.7306 -86.5372 116° Southeast 471 542 27,000  Level Minneapolis Center
08:08AM 43.6722 -86.3747 116° Southeast 471 542 27,000  Level Minneapolis Center
08:09AM 43.6133 -86.2125 117° Southeast 471 542 27,000  Level Minneapolis Center
08:10AM 43.5775 -86.1147 117° Southeast 472 543 27,000  Level Chicago Center
08:11AM 43.5186 -85.9508 116° Southeast 474 545 27,000  Level Chicago Center
08:12AM 43.4575 -85.7864 117° Southeast 478 550 27,000 -360 Level Chicago Center
08:13AM 43.4089 -85.6567 117° Southeast 474 545 26,400 -900 Descending Minneapolis Center
08:14AM 43.3506 -85.5006 117° Southeast 464 534 25,300 -1,440 Descending Minneapolis Center
08:14AM 43.3178 -85.4147 118° Southeast 463 533 24,400 -1,560 Descending Cleveland Center
08:15AM 43.2850 -85.3239 116° Southeast 436 502 23,600 -1,320 Descending Chicago Center
08:15AM 43.2636 -85.2678 118° Southeast 446 513 23,100 -480 Descending Cleveland Center
08:16AM 43.2292 -85.1369 110° East 425 489 23,000 -60 Descending Cleveland Center
08:17AM 43.2000 -84.9753 104° East 419 482 23,000  Level Cleveland Center
08:18AM 43.1600 -84.8186 109° East 429 494 23,000  Level Cleveland Center
08:19AM 43.1156 -84.6619 111° Southeast 434 499 23,000  Level Cleveland Center
08:20AM 43.0667 -84.5081 113° Southeast 439 505 23,000 -480 Level Cleveland Center
08:21AM 43.0386 -84.3983 109° East 436 502 22,200 -1,860 Descending Chicago Center
08:22AM 42.9850 -84.2233 113° Southeast 419 482 19,600 -2,460 Descending Chicago Center
08:23AM 42.9519 -84.1206 114° Southeast 403 464 18,000 -2,100 Descending Cleveland Center
08:23AM 42.9331 -84.0600 113° Southeast 414 476 17,200 -2,160 Descending Cleveland Center
08:23AM 42.9178 -84.0081 112° Southeast 399 459 16,300 -2,400 Descending Cleveland Center
08:24AM 42.8933 -83.9217 111° Southeast 398 458 14,800 -2,640 Descending Cleveland Center
08:24AM 42.8797 -83.8842 116° Southeast 384 442 13,900 -2,640 Descending Cleveland Center
08:25AM 42.8511 -83.7919 113° Southeast 386 444 12,200 -1,500 Descending Cleveland Center
08:26AM 42.8297 -83.7400 119° Southeast 341 392 12,100 -240 Descending Cleveland Center
08:26AM 42.7889 -83.7067 149° Southeast 338 389 12,000 -1,140 Descending Cleveland Center
08:27AM 42.7544 -83.6683 141° Southeast 316 364 11,000 -1,620 Descending Cleveland Center
08:27AM 42.7342 -83.6447 139° Southeast 325 374 10,400 -1,920 Descending Cleveland Center
08:28AM 42.6875 -83.5944 142° Southeast 311 358 9,100 -1,440 Descending Cleveland Center
08:28AM 42.6531 -83.5589 143° Southeast 316 364 9,000 -540 Descending Cleveland Center
08:29AM 42.6125 -83.5117 139° Southeast 311 358 8,500 -1,200 Descending Cleveland Center
08:29AM 42.5861 -83.4850 143° Southeast 316 364 7,800 -2,040 Descending Cleveland Center
08:30AM 42.5436 -83.4408 143° Southeast 297 342 6,500 -1,740 Descending Cleveland Center
08:30AM 42.5192 -83.4172 145° Southeast 310 357 6,100 -720 Descending Cleveland Center
08:31AM 42.4783 -83.3731 141° Southeast 284 327 5,800 -1,020 Descending Cleveland Center
08:31AM 42.4581 -83.3525 143° Southeast 300 345 5,100 -1,560 Descending Cleveland Center
08:32AM 42.4131 -83.3139 148° Southeast 256 295 4,100 -1,140 Descending Cleveland Center
08:32AM 42.3944 -83.3103 172° South 277 319 4,000 -300 Descending Cleveland Center
08:33AM 42.3675 -83.3064 174° South 208 239 3,900 -780 Descending Cleveland Center
08:34AM 42.3069 -83.3122 184° South 183 211 2,800 -1,020 Descending Cleveland Center
08:35AM 42.2689 -83.3358 205° Southwest 134 154 1,800 -1,020 Descending Cleveland Center